Alkiviadis — V7JP4 — position and weather

sailwx.info

Track history (hours):
 
Tides and Currents Weather Stations Pressure Air Temp Water Temp Dewpoint Dewpoint Depression Visibility Wind Speed Wind Dir Waves Ship Positions

Alkiviadis

Last reported at 2017-Oct-17 08:00 UTC. Time now 2017-Oct-17 08:17 UTC.
Position N 36°08' W 005°25'.

Length 184 m; draft 7.4 m.

Type: Tanker. MMSI: 538002553.

Date/timePositionNaut miles runAvg speedWind from/ knotsBaromVisibWave heightAir tempDewpointWater temp
2017-Oct-17 08:00N 36°08' W 005°25'0 0.1
2017-Oct-17 07:22N 36°08' W 005°25'1 1.5
2017-Oct-17 06:52N 36°08' W 005°25'7 0.2
2017-Oct-15 14:00N 36°01' W 005°23'3 6.4
2017-Oct-15 13:30N 35°59' W 005°26'510.6
2017-Oct-15 13:01N 35°57' W 005°32'713.6
2017-Oct-15 12:30N 35°55' W 005°40'1513.8
2017-Oct-15 11:24N 35°54' W 005°59'613.7
2017-Oct-15 11:00N 35°53' W 006°06'713.5
2017-Oct-15 10:30N 35°53' W 006°14'713.1
2017-Oct-15 10:00N 35°54' W 006°22'612.9
2017-Oct-15 09:30N 35°56' W 006°29'612.5
2017-Oct-15 09:00N 35°57' W 006°37'612.4
2017-Oct-15 08:30N 35°59' W 006°44'912.3
2017-Oct-15 07:46N 36°01' W 006°55'412.6
2017-Oct-15 07:29N 36°02' W 006°60'612.7
2017-Oct-15 07:00N 36°03' W 007°07'613.1
2017-Oct-15 06:30N 36°05' W 007°15'612.9
2017-Oct-15 06:00N 36°06' W 007°22'713.2
2017-Oct-15 05:30N 36°08' W 007°30'713.4
2017-Oct-15 05:00N 36°10' W 007°38'612.9
2017-Oct-15 04:30N 36°11' W 007°46'713.0
2017-Oct-15 04:00N 36°13' W 007°54'613.0
2017-Oct-15 03:30N 36°14' W 008°02'713.1
2017-Oct-15 03:00N 36°16' W 008°10'613.1
2017-Oct-15 02:30N 36°18' W 008°17'713.3
2017-Oct-15 02:00N 36°19' W 008°25'713.3
2017-Oct-15 01:30N 36°21' W 008°33'713.5
2017-Oct-15 01:00N 36°22' W 008°42'713.7
2017-Oct-15 00:30N 36°24' W 008°50'713.6
2017-Oct-15 00:00N 36°25' W 008°58'713.8
2017-Oct-14 23:30N 36°27' W 009°06'714.2
2017-Oct-14 23:00N 36°29' W 009°15'713.3
2017-Oct-14 22:30N 36°32' W 009°22'713.8
2017-Oct-14 22:00N 36°37' W 009°28'713.5
2017-Oct-14 21:30N 36°42' W 009°34'713.3
2017-Oct-14 21:00N 36°47' W 009°39'713.2
2017-Oct-14 20:30N 36°54' W 009°41'713.5
2017-Oct-14 20:00N 37°00' W 009°42'713.8
2017-Oct-14 19:30N 37°07' W 009°44'713.7
2017-Oct-14 19:00N 37°14' W 009°46'713.6
2017-Oct-14 18:29N 37°20' W 009°49'613.3
2017-Oct-14 18:00N 37°27' W 009°50'713.4
2017-Oct-14 17:30N 37°33' W 009°52'713.3
2017-Oct-14 17:00N 37°40' W 009°54'713.4
2017-Oct-14 16:30N 37°46' W 009°57'713.7
2017-Oct-14 16:01N 37°53' W 009°59'714.1
2017-Oct-14 15:31N 37°59' W 010°01'713.9
2017-Oct-14 15:00N 38°06' W 010°03'713.8
2017-Oct-14 14:30N 38°13' W 010°05'713.8
2017-Oct-14 14:00N 38°20' W 010°07'713.8
2017-Oct-14 13:30N 38°26' W 010°09'713.8
2017-Oct-14 13:00N 38°33' W 010°11'713.6
2017-Oct-14 12:30N 38°40' W 010°13'713.6
2017-Oct-14 12:01N 38°47' W 010°12'713.4
2017-Oct-14 11:30N 38°53' W 010°12'713.7
2017-Oct-14 11:00N 39°00' W 010°12'714.0
2017-Oct-14 10:30N 39°07' W 010°12'714.2
2017-Oct-14 10:00N 39°14' W 010°12'714.0
2017-Oct-14 09:31N 39°21' W 010°12'714.0
2017-Oct-14 09:00N 39°28' W 010°12'713.9
2017-Oct-14 08:28N 39°36' W 010°12'714.1
2017-Oct-14 08:00N 39°42' W 010°12'713.9
2017-Oct-14 07:30N 39°49' W 010°12'713.8
2017-Oct-14 07:00N 39°56' W 010°12'813.8
2017-Oct-14 06:28N 40°04' W 010°13'613.6
2017-Oct-14 06:00N 40°10' W 010°13'713.8
2017-Oct-14 05:30N 40°17' W 010°13'713.1
2017-Oct-14 05:00N 40°23' W 010°13'713.5
2017-Oct-14 04:27N 40°31' W 010°13'613.7
2017-Oct-14 04:00N 40°37' W 010°13'713.6
2017-Oct-14 03:30N 40°44' W 010°13'713.6
2017-Oct-14 03:00N 40°50' W 010°12'713.5
2017-Oct-14 02:31N 40°57' W 010°12'714.0
2017-Oct-14 02:00N 41°04' W 010°12'714.0
2017-Oct-14 01:30N 41°11' W 010°12'713.7
2017-Oct-14 01:00N 41°18' W 010°12'713.4
2017-Oct-14 00:30N 41°25' W 010°13'713.7
2017-Oct-14 00:00N 41°32' W 010°13'814.0
2017-Oct-13 23:26N 41°39' W 010°13'714.2
2017-Oct-13 22:57N 41°46' W 010°14'613.7
2017-Oct-13 22:30N 41°53' W 010°13'813.8
2017-Oct-13 21:54N 42°01' W 010°12'513.8
2017-Oct-13 21:31N 42°06' W 010°12'713.7
2017-Oct-13 21:00N 42°13' W 010°12'713.6
2017-Oct-13 20:30N 42°20' W 010°12'713.7
2017-Oct-13 20:01N 42°27' W 010°12'713.8
2017-Oct-13 19:30N 42°34' W 010°12'714.1
2017-Oct-13 19:00N 42°41' W 010°12'714.0
2017-Oct-13 18:30N 42°48' W 010°12'713.8
2017-Oct-13 18:00N 42°54' W 010°12'713.7
2017-Oct-13 17:30N 43°01' W 010°12'33312.8
2017-Oct-12 15:28N 46°24' W 003°59'712.7
2017-Oct-12 14:57N 46°28' W 003°51'812.7
2017-Oct-12 14:20N 46°32' W 003°42'412.9
2017-Oct-12 13:59N 46°35' W 003°37'1013.0
2017-Oct-12 13:13N 46°40' W 003°25'613.2
2017-Oct-12 12:44N 46°44' W 003°17'413.6
2017-Oct-12 12:27N 46°46' W 003°12'2413.3
2017-Oct-12 10:41N 46°60' W 002°44'313.1
2017-Oct-12 10:27N 47°01' W 002°40'613.1
2017-Oct-12 10:00N 47°03' W 002°32'713.0
2017-Oct-12 09:30N 47°06' W 002°24'510.1
2017-Oct-12 09:00N 47°10' W 002°19'612.5
2017-Oct-12 08:30N 47°15' W 002°14'5 9.8
2017-Oct-12 08:00N 47°18' W 002°08'1 3.0
2017-Oct-12 07:31N 47°18' W 002°06'0 0.0
2017-Oct-12 07:01N 47°18' W 002°06'0 0.0
2017-Oct-12 06:28N 47°18' W 002°06'0 0.0
2017-Oct-12 05:58N 47°18' W 002°06'0 0.0
2017-Oct-12 05:25N 47°18' W 002°06'0 0.0
2017-Oct-12 04:58N 47°18' W 002°06'0 0.0
2017-Oct-12 04:25N 47°18' W 002°06'0 0.0
2017-Oct-12 03:58N 47°18' W 002°06'0 0.0
2017-Oct-12 03:22N 47°18' W 002°06'0 0.0
2017-Oct-12 02:58N 47°18' W 002°06'0 0.0
2017-Oct-12 02:28N 47°18' W 002°06'0 0.0
2017-Oct-12 01:58N 47°18' W 002°06'0 0.0
2017-Oct-12 01:28N 47°18' W 002°06'0 0.0
2017-Oct-12 00:58N 47°18' W 002°06'0 0.0
2017-Oct-12 00:22N 47°18' W 002°06'0 0.0
2017-Oct-11 23:58N 47°18' W 002°06'0 0.0
2017-Oct-11 23:25N 47°18' W 002°06'0 0.0
2017-Oct-11 22:58N 47°18' W 002°06'0 0.0
2017-Oct-11 22:25N 47°18' W 002°06'0 0.0
2017-Oct-11 21:58N 47°18' W 002°06'0 0.0
2017-Oct-11 21:04N 47°18' W 002°06'0 0.0
2017-Oct-11 20:52N 47°18' W 002°06'0 0.0
2017-Oct-11 20:16N 47°18' W 002°06'0 0.0
2017-Oct-11 19:49N 47°18' W 002°06'0 0.0
2017-Oct-11 19:28N 47°18' W 002°06'0 0.0
2017-Oct-11 18:58N 47°18' W 002°06'0 0.0
2017-Oct-11 18:25N 47°18' W 002°06'0 0.0
2017-Oct-11 17:55N 47°18' W 002°06'0 0.0
2017-Oct-11 17:28N 47°18' W 002°06'0 0.0
2017-Oct-11 16:55N 47°18' W 002°06'0 0.0
2017-Oct-10 23:52N 47°18' W 002°06'0 0.0
2017-Oct-10 23:28N 47°18' W 002°06'0 0.0
2017-Oct-10 22:58N 47°18' W 002°06'0 0.0
2017-Oct-10 22:28N 47°18' W 002°06'0 0.0
2017-Oct-10 21:58N 47°18' W 002°06'0 0.0
2017-Oct-10 21:28N 47°18' W 002°06'0 0.0
2017-Oct-10 20:58N 47°18' W 002°06'0 0.0
2017-Oct-10 20:28N 47°18' W 002°06'0 0.0
2017-Oct-10 19:55N 47°18' W 002°06'0 0.0
2017-Oct-10 19:25N 47°18' W 002°06'0 0.0
2017-Oct-10 18:58N 47°18' W 002°06'0 0.0
2017-Oct-10 18:22N 47°18' W 002°06'0 0.0
2017-Oct-10 17:55N 47°18' W 002°06'0 0.0
2017-Oct-10 17:28N 47°18' W 002°06'0 0.0
2017-Oct-10 16:58N 47°18' W 002°06'0 0.0
2017-Oct-10 16:28N 47°18' W 002°06'0 0.0
2017-Oct-10 15:58N 47°18' W 002°06'0 0.0
2017-Oct-10 15:28N 47°18' W 002°06'0 0.0
2017-Oct-10 14:58N 47°18' W 002°06'0 0.0
2017-Oct-10 13:52N 47°18' W 002°06'0 0.0
2017-Oct-10 13:28N 47°18' W 002°06'0 0.0
2017-Oct-10 12:43N 47°18' W 002°06'0 0.0
2017-Oct-10 12:13N 47°18' W 002°06'0 0.0
2017-Oct-10 11:52N 47°18' W 002°06'0 0.0
2017-Oct-10 11:19N 47°18' W 002°06'0 0.0
2017-Oct-10 10:46N 47°18' W 002°06'0 0.0
2017-Oct-10 10:22N 47°18' W 002°06'0 0.0
2017-Oct-10 09:37N 47°18' W 002°06'0 0.0
2017-Oct-10 09:25N 47°18' W 002°06'0 0.0
2017-Oct-10 08:34N 47°18' W 002°06'0 0.0
2017-Oct-10 08:19N 47°18' W 002°06'0 0.0
2017-Oct-10 07:34N 47°18' W 002°06'0 0.0
2017-Oct-10 07:28N 47°18' W 002°06'0 0.0
2017-Oct-10 06:58N 47°18' W 002°06'0 0.0
2017-Oct-10 06:28N 47°18' W 002°06'0 0.0
2017-Oct-10 05:58N 47°18' W 002°06'0 0.0
2017-Oct-10 05:30N 47°18' W 002°06'1 2.3
2017-Oct-10 05:00N 47°18' W 002°08'511.1
2017-Oct-10 04:31N 47°15' W 002°14'612.5
2017-Oct-10 04:00N 47°10' W 002°19'4 7.1
2017-Oct-10 03:30N 47°07' W 002°22'3 6.5
2017-Oct-10 03:00N 47°07' W 002°27'0 0.4
2017-Oct-10 02:28N 47°07' W 002°27'0 0.0
2017-Oct-10 01:58N 47°07' W 002°27'0 0.2
2017-Oct-10 01:10N 47°07' W 002°27'0 0.1
2017-Oct-10 00:58N 47°07' W 002°27'0 0.2
2017-Oct-10 00:28N 47°07' W 002°27'0 0.1
2017-Oct-09 23:55N 47°07' W 002°27'0 0.1
2017-Oct-09 23:28N 47°07' W 002°27'0 0.1
2017-Oct-09 22:58N 47°07' W 002°27'0 0.0
2017-Oct-09 22:25N 47°07' W 002°27'0 0.1
2017-Oct-09 21:46N 47°07' W 002°27'0 0.1
2017-Oct-09 21:22N 47°07' W 002°27'0 0.2
2017-Oct-09 20:58N 47°07' W 002°27'0 0.0
2017-Oct-09 20:28N 47°07' W 002°27'0 0.1
2017-Oct-09 19:49N 47°07' W 002°27'0 0.0
2017-Oct-09 18:46N 47°07' W 002°27'0 0.0
2017-Oct-09 18:25N 47°07' W 002°27'0 0.1
2017-Oct-09 17:46N 47°07' W 002°27'0 0.0
2017-Oct-09 17:25N 47°07' W 002°27'0 0.0
2017-Oct-09 14:40N 47°07' W 002°27'0 0.1
2017-Oct-09 12:04N 47°07' W 002°27'0 0.0
2017-Oct-09 11:04N 47°07' W 002°27'0 0.0
2017-Oct-09 08:37N 47°07' W 002°27'0 0.0
2017-Oct-09 06:55N 47°07' W 002°27'0 0.0
2017-Oct-09 06:28N 47°07' W 002°27'0 0.0
2017-Oct-09 03:46N 47°07' W 002°27'0 0.0
2017-Oct-09 02:55N 47°07' W 002°27'0 0.0
2017-Oct-09 02:28N 47°07' W 002°27'0 0.0
2017-Oct-09 01:55N 47°07' W 002°27'0 0.0
2017-Oct-09 01:25N 47°07' W 002°27'0 0.0
2017-Oct-09 00:19N 47°07' W 002°27'0 0.0
2017-Oct-08 23:55N 47°07' W 002°27'0 0.3
2017-Oct-08 23:28N 47°07' W 002°27'0 0.0
2017-Oct-08 20:07N 47°07' W 002°27'0 0.1
2017-Oct-08 19:37N 47°07' W 002°27'0 0.1
2017-Oct-08 19:16N 47°07' W 002°27'0 0.0
2017-Oct-08 17:49N 47°07' W 002°27'0 0.0
2017-Oct-08 17:19N 47°07' W 002°27'0 0.0
2017-Oct-08 16:37N 47°07' W 002°27'0 0.0
2017-Oct-08 16:28N 47°07' W 002°27'0 0.0
2017-Oct-08 15:31N 47°07' W 002°27'0 0.1
2017-Oct-08 15:28N 47°07' W 002°27'0 0.0
2017-Oct-08 14:43N 47°07' W 002°27'0 0.0
2017-Oct-08 14:13N 47°07' W 002°27'0 0.0
2017-Oct-08 13:19N 47°07' W 002°27'0 0.0
2017-Oct-08 12:58N 47°07' W 002°27'0 0.0
2017-Oct-08 12:28N 47°07' W 002°27'0 0.1
2017-Oct-08 11:58N 47°07' W 002°27'0 0.1
2017-Oct-08 11:25N 47°07' W 002°27'0 0.2
2017-Oct-08 10:55N 47°07' W 002°27'0 0.0
2017-Oct-08 09:01N 47°07' W 002°27'0 0.0
2017-Oct-08 08:58N 47°07' W 002°27'0 0.1
2017-Oct-08 08:25N 47°07' W 002°27'0 0.0
2017-Oct-08 05:13N 47°07' W 002°27'0 0.0
2017-Oct-08 04:58N 47°07' W 002°27'0 0.1
2017-Oct-08 04:28N 47°07' W 002°27'0 0.0
2017-Oct-08 02:46N 47°07' W 002°27'0 0.0
2017-Oct-08 02:28N 47°07' W 002°27'0 0.0
2017-Oct-08 01:58N 47°07' W 002°27'0 0.0
2017-Oct-08 01:07N 47°07' W 002°27'0 0.0
2017-Oct-08 00:58N 47°07' W 002°27'0 0.0
2017-Oct-08 00:16N 47°07' W 002°27'0 0.0
2017-Oct-07 23:58N 47°07' W 002°27'0 0.0
2017-Oct-07 23:28N 47°07' W 002°27'0 0.0
2017-Oct-07 22:58N 47°07' W 002°27'0 0.3
2017-Oct-07 22:28N 47°07' W 002°27'0 0.1
2017-Oct-07 21:58N 47°07' W 002°27'0 0.0
2017-Oct-07 21:28N 47°07' W 002°27'0 0.0
2017-Oct-07 20:58N 47°07' W 002°27'0 0.0
2017-Oct-07 20:28N 47°07' W 002°27'0 0.1
2017-Oct-07 19:58N 47°07' W 002°27'0 0.1
2017-Oct-07 19:28N 47°07' W 002°27'0 0.1
2017-Oct-07 18:58N 47°07' W 002°27'0 0.0
2017-Oct-07 18:28N 47°07' W 002°27'0 0.0
2017-Oct-07 17:58N 47°07' W 002°27'0 0.0
2017-Oct-07 17:28N 47°07' W 002°27'0 0.1
2017-Oct-07 16:58N 47°07' W 002°27'0 0.0
2017-Oct-07 16:16N 47°07' W 002°27'0 0.0
2017-Oct-07 15:52N 47°07' W 002°27'0 0.0
2017-Oct-07 15:16N 47°07' W 002°27'0 0.1
2017-Oct-07 14:58N 47°07' W 002°27'0 0.0
2017-Oct-07 14:28N 47°07' W 002°27'0 0.0
2017-Oct-07 13:58N 47°07' W 002°27'0 0.0
2017-Oct-07 13:28N 47°07' W 002°27'0 0.0
2017-Oct-07 12:55N 47°07' W 002°27'0 0.0
2017-Oct-07 12:28N 47°07' W 002°27'0 0.0
2017-Oct-07 11:55N 47°07' W 002°27'0 0.0
2017-Oct-07 11:28N 47°07' W 002°27'0 0.1
2017-Oct-07 10:55N 47°07' W 002°27'0 0.3
2017-Oct-07 10:28N 47°07' W 002°27'0 0.2
2017-Oct-07 09:58N 47°07' W 002°27'0 0.1
2017-Oct-07 09:28N 47°07' W 002°27'0 0.0
2017-Oct-07 08:58N 47°07' W 002°27'0 0.0
2017-Oct-07 08:28N 47°07' W 002°27'  
Track history (hours):
 
Tides and Currents Weather Stations Pressure Air Temp Water Temp Dewpoint Dewpoint Depression Visibility Wind Speed Wind Dir Waves Ship Positions

Alkiviadis

Last reported at 2017-Oct-17 08:00 UTC. Time now 2017-Oct-17 08:17 UTC.
Position N 36°08' W 005°25'.

Length 184 m; draft 7.4 m.

Type: Tanker. MMSI: 538002553.

Date/timePositionNaut miles runAvg speedWind from/ knotsBaromVisibWave heightAir tempDewpointWater temp
2017-Oct-17 08:00N 36°08' W 005°25'0 0.1
2017-Oct-17 07:22N 36°08' W 005°25'1 1.5
2017-Oct-17 06:52N 36°08' W 005°25'7 0.2
2017-Oct-15 14:00N 36°01' W 005°23'3 6.4
2017-Oct-15 13:30N 35°59' W 005°26'510.6
2017-Oct-15 13:01N 35°57' W 005°32'713.6
2017-Oct-15 12:30N 35°55' W 005°40'1513.8
2017-Oct-15 11:24N 35°54' W 005°59'613.7
2017-Oct-15 11:00N 35°53' W 006°06'713.5
2017-Oct-15 10:30N 35°53' W 006°14'713.1
2017-Oct-15 10:00N 35°54' W 006°22'612.9
2017-Oct-15 09:30N 35°56' W 006°29'612.5
2017-Oct-15 09:00N 35°57' W 006°37'612.4
2017-Oct-15 08:30N 35°59' W 006°44'912.3
2017-Oct-15 07:46N 36°01' W 006°55'412.6
2017-Oct-15 07:29N 36°02' W 006°60'612.7
2017-Oct-15 07:00N 36°03' W 007°07'613.1
2017-Oct-15 06:30N 36°05' W 007°15'612.9
2017-Oct-15 06:00N 36°06' W 007°22'713.2
2017-Oct-15 05:30N 36°08' W 007°30'713.4
2017-Oct-15 05:00N 36°10' W 007°38'612.9
2017-Oct-15 04:30N 36°11' W 007°46'713.0
2017-Oct-15 04:00N 36°13' W 007°54'613.0
2017-Oct-15 03:30N 36°14' W 008°02'713.1
2017-Oct-15 03:00N 36°16' W 008°10'613.1
2017-Oct-15 02:30N 36°18' W 008°17'713.3
2017-Oct-15 02:00N 36°19' W 008°25'713.3
2017-Oct-15 01:30N 36°21' W 008°33'713.5
2017-Oct-15 01:00N 36°22' W 008°42'713.7
2017-Oct-15 00:30N 36°24' W 008°50'713.6
2017-Oct-15 00:00N 36°25' W 008°58'713.8
2017-Oct-14 23:30N 36°27' W 009°06'714.2
2017-Oct-14 23:00N 36°29' W 009°15'713.3
2017-Oct-14 22:30N 36°32' W 009°22'713.8
2017-Oct-14 22:00N 36°37' W 009°28'713.5
2017-Oct-14 21:30N 36°42' W 009°34'713.3
2017-Oct-14 21:00N 36°47' W 009°39'713.2
2017-Oct-14 20:30N 36°54' W 009°41'713.5
2017-Oct-14 20:00N 37°00' W 009°42'713.8
2017-Oct-14 19:30N 37°07' W 009°44'713.7
2017-Oct-14 19:00N 37°14' W 009°46'713.6
2017-Oct-14 18:29N 37°20' W 009°49'613.3
2017-Oct-14 18:00N 37°27' W 009°50'713.4
2017-Oct-14 17:30N 37°33' W 009°52'713.3
2017-Oct-14 17:00N 37°40' W 009°54'713.4
2017-Oct-14 16:30N 37°46' W 009°57'713.7
2017-Oct-14 16:01N 37°53' W 009°59'714.1
2017-Oct-14 15:31N 37°59' W 010°01'713.9
2017-Oct-14 15:00N 38°06' W 010°03'713.8
2017-Oct-14 14:30N 38°13' W 010°05'713.8
2017-Oct-14 14:00N 38°20' W 010°07'713.8
2017-Oct-14 13:30N 38°26' W 010°09'713.8
2017-Oct-14 13:00N 38°33' W 010°11'713.6
2017-Oct-14 12:30N 38°40' W 010°13'713.6
2017-Oct-14 12:01N 38°47' W 010°12'713.4
2017-Oct-14 11:30N 38°53' W 010°12'713.7
2017-Oct-14 11:00N 39°00' W 010°12'714.0
2017-Oct-14 10:30N 39°07' W 010°12'714.2
2017-Oct-14 10:00N 39°14' W 010°12'714.0
2017-Oct-14 09:31N 39°21' W 010°12'714.0
2017-Oct-14 09:00N 39°28' W 010°12'713.9
2017-Oct-14 08:28N 39°36' W 010°12'714.1
2017-Oct-14 08:00N 39°42' W 010°12'713.9
2017-Oct-14 07:30N 39°49' W 010°12'713.8
2017-Oct-14 07:00N 39°56' W 010°12'813.8
2017-Oct-14 06:28N 40°04' W 010°13'613.6
2017-Oct-14 06:00N 40°10' W 010°13'713.8
2017-Oct-14 05:30N 40°17' W 010°13'713.1
2017-Oct-14 05:00N 40°23' W 010°13'713.5
2017-Oct-14 04:27N 40°31' W 010°13'613.7
2017-Oct-14 04:00N 40°37' W 010°13'713.6
2017-Oct-14 03:30N 40°44' W 010°13'713.6
2017-Oct-14 03:00N 40°50' W 010°12'713.5
2017-Oct-14 02:31N 40°57' W 010°12'714.0
2017-Oct-14 02:00N 41°04' W 010°12'714.0
2017-Oct-14 01:30N 41°11' W 010°12'713.7
2017-Oct-14 01:00N 41°18' W 010°12'713.4
2017-Oct-14 00:30N 41°25' W 010°13'713.7
2017-Oct-14 00:00N 41°32' W 010°13'814.0
2017-Oct-13 23:26N 41°39' W 010°13'714.2
2017-Oct-13 22:57N 41°46' W 010°14'613.7
2017-Oct-13 22:30N 41°53' W 010°13'813.8
2017-Oct-13 21:54N 42°01' W 010°12'513.8
2017-Oct-13 21:31N 42°06' W 010°12'713.7
2017-Oct-13 21:00N 42°13' W 010°12'713.6
2017-Oct-13 20:30N 42°20' W 010°12'713.7
2017-Oct-13 20:01N 42°27' W 010°12'713.8
2017-Oct-13 19:30N 42°34' W 010°12'714.1
2017-Oct-13 19:00N 42°41' W 010°12'714.0
2017-Oct-13 18:30N 42°48' W 010°12'713.8
2017-Oct-13 18:00N 42°54' W 010°12'713.7
2017-Oct-13 17:30N 43°01' W 010°12'33312.8
2017-Oct-12 15:28N 46°24' W 003°59'712.7
2017-Oct-12 14:57N 46°28' W 003°51'812.7
2017-Oct-12 14:20N 46°32' W 003°42'412.9
2017-Oct-12 13:59N 46°35' W 003°37'1013.0
2017-Oct-12 13:13N 46°40' W 003°25'613.2
2017-Oct-12 12:44N 46°44' W 003°17'413.6
2017-Oct-12 12:27N 46°46' W 003°12'2413.3
2017-Oct-12 10:41N 46°60' W 002°44'313.1
2017-Oct-12 10:27N 47°01' W 002°40'613.1
2017-Oct-12 10:00N 47°03' W 002°32'713.0
2017-Oct-12 09:30N 47°06' W 002°24'510.1
2017-Oct-12 09:00N 47°10' W 002°19'612.5
2017-Oct-12 08:30N 47°15' W 002°14'5 9.8
2017-Oct-12 08:00N 47°18' W 002°08'1 3.0
2017-Oct-12 07:31N 47°18' W 002°06'0 0.0
2017-Oct-12 07:01N 47°18' W 002°06'0 0.0
2017-Oct-12 06:28N 47°18' W 002°06'0 0.0
2017-Oct-12 05:58N 47°18' W 002°06'0 0.0
2017-Oct-12 05:25N 47°18' W 002°06'0 0.0
2017-Oct-12 04:58N 47°18' W 002°06'0 0.0
2017-Oct-12 04:25N 47°18' W 002°06'0 0.0
2017-Oct-12 03:58N 47°18' W 002°06'0 0.0
2017-Oct-12 03:22N 47°18' W 002°06'0 0.0
2017-Oct-12 02:58N 47°18' W 002°06'0 0.0
2017-Oct-12 02:28N 47°18' W 002°06'0 0.0
2017-Oct-12 01:58N 47°18' W 002°06'0 0.0
2017-Oct-12 01:28N 47°18' W 002°06'0 0.0
2017-Oct-12 00:58N 47°18' W 002°06'0 0.0
2017-Oct-12 00:22N 47°18' W 002°06'0 0.0
2017-Oct-11 23:58N 47°18' W 002°06'0 0.0
2017-Oct-11 23:25N 47°18' W 002°06'0 0.0
2017-Oct-11 22:58N 47°18' W 002°06'0 0.0
2017-Oct-11 22:25N 47°18' W 002°06'0 0.0
2017-Oct-11 21:58N 47°18' W 002°06'0 0.0
2017-Oct-11 21:04N 47°18' W 002°06'0 0.0
2017-Oct-11 20:52N 47°18' W 002°06'0 0.0
2017-Oct-11 20:16N 47°18' W 002°06'0 0.0
2017-Oct-11 19:49N 47°18' W 002°06'0 0.0
2017-Oct-11 19:28N 47°18' W 002°06'0 0.0
2017-Oct-11 18:58N 47°18' W 002°06'0 0.0
2017-Oct-11 18:25N 47°18' W 002°06'0 0.0
2017-Oct-11 17:55N 47°18' W 002°06'0 0.0
2017-Oct-11 17:28N 47°18' W 002°06'0 0.0
2017-Oct-11 16:55N 47°18' W 002°06'0 0.0
2017-Oct-10 23:52N 47°18' W 002°06'0 0.0
2017-Oct-10 23:28N 47°18' W 002°06'0 0.0
2017-Oct-10 22:58N 47°18' W 002°06'0 0.0
2017-Oct-10 22:28N 47°18' W 002°06'0 0.0
2017-Oct-10 21:58N 47°18' W 002°06'0 0.0
2017-Oct-10 21:28N 47°18' W 002°06'0 0.0
2017-Oct-10 20:58N 47°18' W 002°06'0 0.0
2017-Oct-10 20:28N 47°18' W 002°06'0 0.0
2017-Oct-10 19:55N 47°18' W 002°06'0 0.0
2017-Oct-10 19:25N 47°18' W 002°06'0 0.0
2017-Oct-10 18:58N 47°18' W 002°06'0 0.0
2017-Oct-10 18:22N 47°18' W 002°06'0 0.0
2017-Oct-10 17:55N 47°18' W 002°06'0 0.0
2017-Oct-10 17:28N 47°18' W 002°06'0 0.0
2017-Oct-10 16:58N 47°18' W 002°06'0 0.0
2017-Oct-10 16:28N 47°18' W 002°06'0 0.0
2017-Oct-10 15:58N 47°18' W 002°06'0 0.0
2017-Oct-10 15:28N 47°18' W 002°06'0 0.0
2017-Oct-10 14:58N 47°18' W 002°06'0 0.0
2017-Oct-10 13:52N 47°18' W 002°06'0 0.0
2017-Oct-10 13:28N 47°18' W 002°06'0 0.0
2017-Oct-10 12:43N 47°18' W 002°06'0 0.0
2017-Oct-10 12:13N 47°18' W 002°06'0 0.0
2017-Oct-10 11:52N 47°18' W 002°06'0 0.0
2017-Oct-10 11:19N 47°18' W 002°06'0 0.0
2017-Oct-10 10:46N 47°18' W 002°06'0 0.0
2017-Oct-10 10:22N 47°18' W 002°06'0 0.0
2017-Oct-10 09:37N 47°18' W 002°06'0 0.0
2017-Oct-10 09:25N 47°18' W 002°06'0 0.0
2017-Oct-10 08:34N 47°18' W 002°06'0 0.0
2017-Oct-10 08:19N 47°18' W 002°06'0 0.0
2017-Oct-10 07:34N 47°18' W 002°06'0 0.0
2017-Oct-10 07:28N 47°18' W 002°06'0 0.0
2017-Oct-10 06:58N 47°18' W 002°06'0 0.0
2017-Oct-10 06:28N 47°18' W 002°06'0 0.0
2017-Oct-10 05:58N 47°18' W 002°06'0 0.0
2017-Oct-10 05:30N 47°18' W 002°06'1 2.3
2017-Oct-10 05:00N 47°18' W 002°08'511.1
2017-Oct-10 04:31N 47°15' W 002°14'612.5
2017-Oct-10 04:00N 47°10' W 002°19'4 7.1
2017-Oct-10 03:30N 47°07' W 002°22'3 6.5
2017-Oct-10 03:00N 47°07' W 002°27'0 0.4
2017-Oct-10 02:28N 47°07' W 002°27'0 0.0
2017-Oct-10 01:58N 47°07' W 002°27'0 0.2
2017-Oct-10 01:10N 47°07' W 002°27'0 0.1
2017-Oct-10 00:58N 47°07' W 002°27'0 0.2
2017-Oct-10 00:28N 47°07' W 002°27'0 0.1
2017-Oct-09 23:55N 47°07' W 002°27'0 0.1
2017-Oct-09 23:28N 47°07' W 002°27'0 0.1
2017-Oct-09 22:58N 47°07' W 002°27'0 0.0
2017-Oct-09 22:25N 47°07' W 002°27'0 0.1
2017-Oct-09 21:46N 47°07' W 002°27'0 0.1
2017-Oct-09 21:22N 47°07' W 002°27'0 0.2
2017-Oct-09 20:58N 47°07' W 002°27'0 0.0
2017-Oct-09 20:28N 47°07' W 002°27'0 0.1
2017-Oct-09 19:49N 47°07' W 002°27'0 0.0
2017-Oct-09 18:46N 47°07' W 002°27'0 0.0
2017-Oct-09 18:25N 47°07' W 002°27'0 0.1
2017-Oct-09 17:46N 47°07' W 002°27'0 0.0
2017-Oct-09 17:25N 47°07' W 002°27'0 0.0
2017-Oct-09 14:40N 47°07' W 002°27'0 0.1
2017-Oct-09 12:04N 47°07' W 002°27'0 0.0
2017-Oct-09 11:04N 47°07' W 002°27'0 0.0
2017-Oct-09 08:37N 47°07' W 002°27'0 0.0
2017-Oct-09 06:55N 47°07' W 002°27'0 0.0
2017-Oct-09 06:28N 47°07' W 002°27'0 0.0
2017-Oct-09 03:46N 47°07' W 002°27'0 0.0
2017-Oct-09 02:55N 47°07' W 002°27'0 0.0
2017-Oct-09 02:28N 47°07' W 002°27'0 0.0
2017-Oct-09 01:55N 47°07' W 002°27'0 0.0
2017-Oct-09 01:25N 47°07' W 002°27'0 0.0
2017-Oct-09 00:19N 47°07' W 002°27'0 0.0
2017-Oct-08 23:55N 47°07' W 002°27'0 0.3
2017-Oct-08 23:28N 47°07' W 002°27'0 0.0
2017-Oct-08 20:07N 47°07' W 002°27'0 0.1
2017-Oct-08 19:37N 47°07' W 002°27'0 0.1
2017-Oct-08 19:16N 47°07' W 002°27'0 0.0
2017-Oct-08 17:49N 47°07' W 002°27'0 0.0
2017-Oct-08 17:19N 47°07' W 002°27'0 0.0
2017-Oct-08 16:37N 47°07' W 002°27'0 0.0
2017-Oct-08 16:28N 47°07' W 002°27'0 0.0
2017-Oct-08 15:31N 47°07' W 002°27'0 0.1
2017-Oct-08 15:28N 47°07' W 002°27'0 0.0
2017-Oct-08 14:43N 47°07' W 002°27'0 0.0
2017-Oct-08 14:13N 47°07' W 002°27'0 0.0
2017-Oct-08 13:19N 47°07' W 002°27'0 0.0
2017-Oct-08 12:58N 47°07' W 002°27'0 0.0
2017-Oct-08 12:28N 47°07' W 002°27'0 0.1
2017-Oct-08 11:58N 47°07' W 002°27'0 0.1
2017-Oct-08 11:25N 47°07' W 002°27'0 0.2
2017-Oct-08 10:55N 47°07' W 002°27'0 0.0
2017-Oct-08 09:01N 47°07' W 002°27'0 0.0
2017-Oct-08 08:58N 47°07' W 002°27'0 0.1
2017-Oct-08 08:25N 47°07' W 002°27'0 0.0
2017-Oct-08 05:13N 47°07' W 002°27'0 0.0
2017-Oct-08 04:58N 47°07' W 002°27'0 0.1
2017-Oct-08 04:28N 47°07' W 002°27'0 0.0
2017-Oct-08 02:46N 47°07' W 002°27'0 0.0
2017-Oct-08 02:28N 47°07' W 002°27'0 0.0
2017-Oct-08 01:58N 47°07' W 002°27'0 0.0
2017-Oct-08 01:07N 47°07' W 002°27'0 0.0
2017-Oct-08 00:58N 47°07' W 002°27'0 0.0
2017-Oct-08 00:16N 47°07' W 002°27'0 0.0
2017-Oct-07 23:58N 47°07' W 002°27'0 0.0
2017-Oct-07 23:28N 47°07' W 002°27'0 0.0
2017-Oct-07 22:58N 47°07' W 002°27'0 0.3
2017-Oct-07 22:28N 47°07' W 002°27'0 0.1
2017-Oct-07 21:58N 47°07' W 002°27'0 0.0
2017-Oct-07 21:28N 47°07' W 002°27'0 0.0
2017-Oct-07 20:58N 47°07' W 002°27'0 0.0
2017-Oct-07 20:28N 47°07' W 002°27'0 0.1
2017-Oct-07 19:58N 47°07' W 002°27'0 0.1
2017-Oct-07 19:28N 47°07' W 002°27'0 0.1
2017-Oct-07 18:58N 47°07' W 002°27'0 0.0
2017-Oct-07 18:28N 47°07' W 002°27'0 0.0
2017-Oct-07 17:58N 47°07' W 002°27'0 0.0
2017-Oct-07 17:28N 47°07' W 002°27'0 0.1
2017-Oct-07 16:58N 47°07' W 002°27'0 0.0
2017-Oct-07 16:16N 47°07' W 002°27'0 0.0
2017-Oct-07 15:52N 47°07' W 002°27'0 0.0
2017-Oct-07 15:16N 47°07' W 002°27'0 0.1
2017-Oct-07 14:58N 47°07' W 002°27'0 0.0
2017-Oct-07 14:28N 47°07' W 002°27'0 0.0
2017-Oct-07 13:58N 47°07' W 002°27'0 0.0
2017-Oct-07 13:28N 47°07' W 002°27'0 0.0
2017-Oct-07 12:55N 47°07' W 002°27'0 0.0
2017-Oct-07 12:28N 47°07' W 002°27'0 0.0
2017-Oct-07 11:55N 47°07' W 002°27'0 0.0
2017-Oct-07 11:28N 47°07' W 002°27'0 0.1
2017-Oct-07 10:55N 47°07' W 002°27'0 0.3
2017-Oct-07 10:28N 47°07' W 002°27'0 0.2
2017-Oct-07 09:58N 47°07' W 002°27'0 0.1
2017-Oct-07 09:28N 47°07' W 002°27'0 0.0
2017-Oct-07 08:58N 47°07' W 002°27'0 0.0
2017-Oct-07 08:28N 47°07' W 002°27'  

Dump ship's entire track history